Time;durP1;ratioP1;P1;durP2;ratioP2;P2;SDS_P1;SDS_P2;PMS_P1;PMS_P2;Temp;Humidity;BMP_temperature;BMP_pressure;BME280_temperature;BME280_humidity;BME280_pressure;Samples;Min_cycle;Max_cycle;Signal;HPM_P1;HPM_P2
2021/08/11 00:01:42;;;;;;;2.40;2.20;;;21.50;1.00;;;;;;5130481;27;20456;-81
2021/08/11 00:04:11;;;;;;;2.90;2.10;;;21.40;1.00;;;;;;5133522;27;20469;-81
2021/08/11 00:06:39;;;;;;;2.37;2.17;;;21.50;1.00;;;;;;5132332;27;20501;-81
2021/08/11 00:09:07;;;;;;;2.53;2.10;;;21.40;1.00;;;;;;5132337;27;20643;-81
2021/08/11 00:11:36;;;;;;;2.53;2.10;;;21.40;1.00;;;;;;5131320;27;20456;-81
2021/08/11 00:14:04;;;;;;;2.57;2.33;;;21.40;1.00;;;;;;5133105;28;20927;-81
2021/08/11 00:16:34;;;;;;;2.83;2.27;;;21.40;1.00;;;;;;5131015;28;20480;-81
2021/08/11 00:19:02;;;;;;;2.27;2.07;;;21.40;1.00;;;;;;5118876;28;20445;-81
2021/08/11 00:21:30;;;;;;;2.60;1.83;;;21.30;1.00;;;;;;5111280;28;20472;-81
2021/08/11 00:23:58;;;;;;;2.43;2.23;;;21.30;1.00;;;;;;5116460;28;20497;-81
2021/08/11 00:26:26;;;;;;;3.73;2.03;;;21.20;1.00;;;;;;5116134;27;20456;-80
2021/08/11 00:28:54;;;;;;;3.00;2.30;;;21.20;1.00;;;;;;5116522;28;20445;-81
2021/08/11 00:31:22;;;;;;;3.37;2.20;;;21.10;1.00;;;;;;5115759;28;20975;-81
2021/08/11 00:33:52;;;;;;;3.20;2.83;;;20.90;1.00;;;;;;5115482;28;20476;-81
2021/08/11 00:36:20;;;;;;;2.80;2.27;;;21.00;1.00;;;;;;5116606;28;20456;-80
2021/08/11 00:38:48;;;;;;;2.50;2.03;;;21.10;1.00;;;;;;5114833;28;20487;-81
2021/08/11 00:41:16;;;;;;;3.77;2.43;;;21.10;1.00;;;;;;5116439;28;20761;-81
2021/08/11 00:43:45;;;;;;;2.40;2.20;;;21.10;1.00;;;;;;5116866;27;20453;-81
2021/08/11 00:46:13;;;;;;;2.80;2.60;;;21.10;1.00;;;;;;5115786;28;20470;-80
2021/08/11 00:48:42;;;;;;;4.13;2.33;;;21.10;1.00;;;;;;5113606;28;20483;-81
2021/08/11 00:51:11;;;;;;;3.23;2.23;;;21.10;1.00;;;;;;5116030;28;20429;-81
2021/08/11 00:53:41;;;;;;;2.57;2.20;;;21.10;1.00;;;;;;5115289;28;20435;-81
2021/08/11 00:56:10;;;;;;;2.73;2.10;;;21.10;1.00;;;;;;5116286;28;20456;-81
2021/08/11 00:58:39;;;;;;;2.93;2.00;;;21.00;1.00;;;;;;5114073;28;20456;-81
2021/08/11 01:01:08;;;;;;;2.80;2.50;;;21.00;1.00;;;;;;5115998;27;21279;-81
2021/08/11 01:03:38;;;;;;;3.17;2.33;;;21.00;1.00;;;;;;5113579;28;20441;-82
2021/08/11 01:06:07;;;;;;;4.83;2.10;;;21.00;1.00;;;;;;5116537;27;20535;-81
2021/08/11 01:08:38;;;;;;;2.40;2.20;;;21.00;1.00;;;;;;5114948;28;20439;-81
2021/08/11 01:11:07;;;;;;;3.70;2.53;;;20.90;1.00;;;;;;5113660;28;20439;-81
2021/08/11 01:13:35;;;;;;;2.43;2.07;;;20.90;1.00;;;;;;5113761;28;20533;-81
2021/08/11 01:16:04;;;;;;;2.53;2.27;;;20.90;1.00;;;;;;5116731;28;20509;-81
2021/08/11 01:18:32;;;;;;;2.33;2.13;;;20.90;1.00;;;;;;5114904;28;20452;-80
2021/08/11 01:21:07;;;;;;;4.47;2.17;;;20.90;1.00;;;;;;5115569;28;20444;-81
2021/08/11 01:23:47;;;;;;;3.50;2.20;;;20.90;1.00;;;;;;5114704;28;20857;-81
2021/08/11 01:26:37;;;;;;;4.87;2.40;;;20.90;1.00;;;;;;5115353;28;20445;-80
2021/08/11 01:29:08;;;;;;;2.53;2.33;;;20.90;1.00;;;;;;5113960;28;20429;-81
2021/08/11 01:31:46;;;;;;;2.80;1.97;;;20.90;1.00;;;;;;5115357;28;20464;-81
2021/08/11 01:34:20;;;;;;;2.47;2.20;;;20.80;1.00;;;;;;5120038;27;20513;-80
2021/08/11 01:36:52;;;;;;;3.07;2.57;;;20.80;1.00;;;;;;5135939;27;20468;-81
2021/08/11 01:39:33;;;;;;;3.63;2.00;;;20.80;1.00;;;;;;5134865;27;20518;-80
2021/08/11 01:42:05;;;;;;;3.50;2.20;;;20.80;1.00;;;;;;5134324;27;20512;-81
2021/08/11 01:44:38;;;;;;;2.20;1.80;;;20.80;1.00;;;;;;5135178;27;20873;-81
2021/08/11 01:47:11;;;;;;;2.40;2.20;;;20.70;1.00;;;;;;5134290;27;20436;-81
2021/08/11 01:49:44;;;;;;;2.43;2.23;;;20.70;1.00;;;;;;5135219;27;20931;-81
2021/08/11 01:52:15;;;;;;;3.47;2.07;;;20.70;1.00;;;;;;5133783;27;20472;-81
2021/08/11 01:54:44;;;;;;;2.30;2.07;;;20.70;1.00;;;;;;5134662;27;20451;-81
2021/08/11 01:57:13;;;;;;;2.23;2.13;;;20.70;1.00;;;;;;5134529;27;20475;-81
2021/08/11 01:59:43;;;;;;;2.20;2.00;;;20.70;1.00;;;;;;5133763;27;21016;-81
2021/08/11 02:02:14;;;;;;;3.03;2.47;;;20.70;1.00;;;;;;5134955;27;20459;-81
2021/08/11 02:04:44;;;;;;;3.57;2.10;;;20.70;1.00;;;;;;5135030;27;20504;-81
2021/08/11 02:07:14;;;;;;;2.80;2.20;;;20.70;1.00;;;;;;5134304;27;20473;-81
2021/08/11 02:09:43;;;;;;;2.67;2.33;;;20.60;1.00;;;;;;5133283;27;20444;-81
2021/08/11 02:12:11;;;;;;;3.00;2.23;;;20.60;1.00;;;;;;5131349;27;20947;-81
2021/08/11 02:14:40;;;;;;;2.57;2.37;;;20.60;1.00;;;;;;5135598;27;20463;-81
2021/08/11 02:17:09;;;;;;;3.40;2.63;;;20.60;1.00;;;;;;5126472;27;20565;-81
2021/08/11 02:19:37;;;;;;;2.77;2.30;;;20.60;1.00;;;;;;5114711;28;20478;-81
2021/08/11 02:22:06;;;;;;;3.10;2.10;;;20.60;1.00;;;;;;5111501;28;20890;-81
2021/08/11 02:24:35;;;;;;;2.90;2.70;;;20.60;1.00;;;;;;5115355;27;20433;-81
2021/08/11 02:27:10;;;;;;;2.70;2.37;;;20.50;1.00;;;;;;5133635;27;20780;-81
2021/08/11 02:29:44;;;;;;;2.60;2.37;;;20.50;1.00;;;;;;5134389;27;20436;-81
2021/08/11 02:32:19;;;;;;;2.73;2.20;;;20.50;1.00;;;;;;5133625;27;20459;-80
2021/08/11 02:34:56;;;;;;;2.77;2.03;;;20.50;1.00;;;;;;5135184;27;20442;-81
2021/08/11 02:37:30;;;;;;;1.83;1.73;;;20.50;1.00;;;;;;5133748;27;20471;-81
2021/08/11 02:40:04;;;;;;;3.90;2.07;;;20.40;1.00;;;;;;5133738;27;20762;-82
2021/08/11 02:42:39;;;;;;;3.03;1.93;;;20.40;1.00;;;;;;5133096;27;20977;-81
2021/08/11 02:45:12;;;;;;;5.60;1.90;;;20.40;1.00;;;;;;5133460;27;20491;-81
2021/08/11 02:47:41;;;;;;;2.10;1.90;;;20.40;1.00;;;;;;5132257;27;20440;-81
2021/08/11 02:50:11;;;;;;;2.80;2.60;;;20.30;1.00;;;;;;5132395;27;20950;-81
2021/08/11 02:52:41;;;;;;;3.30;2.10;;;20.30;1.00;;;;;;5120178;27;20980;-81
2021/08/11 02:55:10;;;;;;;2.97;2.27;;;20.30;1.00;;;;;;5133402;27;20435;-81
2021/08/11 02:57:39;;;;;;;2.70;2.20;;;20.30;1.00;;;;;;5134304;27;20529;-81
2021/08/11 03:00:08;;;;;;;3.37;2.10;;;20.30;1.00;;;;;;5118892;27;20449;-81
2021/08/11 03:02:37;;;;;;;4.23;3.83;;;20.30;1.00;;;;;;5112524;28;20473;-81
2021/08/11 03:05:06;;;;;;;2.87;2.40;;;20.20;1.00;;;;;;5112908;28;20552;-80
2021/08/11 03:07:35;;;;;;;5.63;2.90;;;20.20;1.00;;;;;;5113335;28;20485;-81
2021/08/11 03:10:06;;;;;;;2.53;2.30;;;20.20;1.00;;;;;;5110136;28;20514;-81
2021/08/11 03:12:36;;;;;;;2.90;1.80;;;20.30;1.00;;;;;;5112642;28;20455;-80
2021/08/11 03:15:06;;;;;;;2.73;1.87;;;20.30;1.00;;;;;;5110994;28;20875;-81
2021/08/11 03:17:35;;;;;;;2.40;2.30;;;20.30;1.00;;;;;;5122766;27;20475;-81
2021/08/11 03:20:04;;;;;;;2.63;2.30;;;20.20;1.00;;;;;;5132337;27;20548;-81
2021/08/11 03:22:32;;;;;;;4.37;1.80;;;20.30;1.00;;;;;;5132838;27;20467;-81
2021/08/11 03:25:00;;;;;;;2.83;2.20;;;20.20;1.00;;;;;;5132241;27;20431;-80
2021/08/11 03:27:30;;;;;;;2.07;1.87;;;20.20;1.00;;;;;;5133538;27;20936;-81
2021/08/11 03:29:58;;;;;;;2.50;2.30;;;20.20;1.00;;;;;;5131712;27;20843;-81
2021/08/11 03:32:26;;;;;;;2.77;1.97;;;20.20;1.00;;;;;;5133374;27;20460;-81
2021/08/11 03:34:54;;;;;;;2.73;2.20;;;20.20;1.00;;;;;;5112673;28;20467;-80
2021/08/11 03:37:23;;;;;;;2.77;2.30;;;20.20;1.00;;;;;;5113352;28;20509;-81
2021/08/11 03:39:51;;;;;;;2.70;2.40;;;20.10;1.00;;;;;;5110851;28;20649;-81
2021/08/11 03:42:19;;;;;;;3.00;2.23;;;20.10;1.00;;;;;;5113247;28;20461;-80
2021/08/11 03:44:49;;;;;;;2.10;2.00;;;20.10;1.00;;;;;;5109763;28;20449;-81
2021/08/11 03:47:17;;;;;;;2.40;2.10;;;20.10;1.00;;;;;;5112971;28;20444;-79
2021/08/11 03:49:46;;;;;;;5.70;2.50;;;20.10;1.00;;;;;;5111976;28;20449;-80
2021/08/11 03:52:14;;;;;;;4.13;2.10;;;20.10;1.00;;;;;;5112670;28;20453;-80
2021/08/11 03:54:42;;;;;;;2.70;1.97;;;20.00;10.30;;;;;;5111165;28;20437;-81
2021/08/11 03:57:10;;;;;;;2.40;2.20;;;20.00;29.80;;;;;;5113052;28;20433;-80
2021/08/11 03:59:38;;;;;;;2.50;2.10;;;20.10;58.50;;;;;;5110933;28;20501;-80
2021/08/11 04:02:07;;;;;;;2.87;2.63;;;20.10;75.30;;;;;;5112719;28;20469;-80
2021/08/11 04:04:37;;;;;;;4.33;2.57;;;20.00;83.60;;;;;;5112888;28;20810;-81
2021/08/11 04:07:06;;;;;;;2.63;2.43;;;20.00;72.10;;;;;;5112112;28;20448;-81
2021/08/11 04:09:34;;;;;;;3.40;2.57;;;20.10;55.10;;;;;;5109288;28;20806;-80
2021/08/11 04:12:03;;;;;;;3.50;2.77;;;20.10;32.80;;;;;;5111956;28;20441;-80
2021/08/11 04:14:31;;;;;;;3.90;2.57;;;20.10;22.10;;;;;;5110873;28;20944;-81
2021/08/11 04:16:59;;;;;;;2.30;2.10;;;20.10;25.70;;;;;;5111881;28;20526;-81
2021/08/11 04:19:29;;;;;;;2.30;2.10;;;20.00;49.70;;;;;;5110727;28;20481;-80
2021/08/11 04:21:57;;;;;;;4.80;2.60;;;20.00;41.50;;;;;;5110416;28;20465;-81
2021/08/11 04:24:25;;;;;;;4.07;2.40;;;20.00;20.40;;;;;;5111530;28;20479;-81
2021/08/11 04:26:53;;;;;;;5.80;2.80;;;20.00;31.90;;;;;;5112227;28;20749;-81
2021/08/11 04:29:21;;;;;;;3.40;2.20;;;20.00;47.10;;;;;;5111618;28;20468;-81
2021/08/11 04:31:49;;;;;;;4.13;2.60;;;20.00;42.70;;;;;;5110479;28;20455;-81
2021/08/11 04:34:17;;;;;;;3.17;2.20;;;20.00;56.00;;;;;;5111449;28;20449;-81
2021/08/11 04:36:47;;;;;;;3.70;2.60;;;20.00;62.30;;;;;;5112235;28;20456;-80
2021/08/11 04:39:15;;;;;;;2.97;2.10;;;19.90;63.20;;;;;;5111589;28;20514;-81
2021/08/11 04:41:43;;;;;;;4.93;2.27;;;19.90;94.10;;;;;;5112427;28;20476;-81
2021/08/11 04:44:12;;;;;;;3.03;2.30;;;19.90;99.90;;;;;;5112543;28;20445;-81
2021/08/11 04:46:40;;;;;;;3.13;2.80;;;19.90;99.90;;;;;;5111461;28;20683;-81
2021/08/11 04:49:08;;;;;;;3.63;2.80;;;20.00;99.90;;;;;;5111281;28;20436;-81
2021/08/11 04:51:37;;;;;;;3.80;3.33;;;19.90;99.90;;;;;;5111704;28;20453;-81
2021/08/11 04:54:07;;;;;;;3.23;2.63;;;19.90;99.90;;;;;;5110483;28;20436;-81
2021/08/11 04:56:35;;;;;;;4.00;3.67;;;19.90;99.90;;;;;;5111301;28;20474;-81
2021/08/11 04:59:03;;;;;;;3.90;2.97;;;19.80;99.90;;;;;;5111073;28;20477;-81
2021/08/11 05:01:32;;;;;;;2.53;2.33;;;19.60;99.90;;;;;;5111034;28;20491;-81
2021/08/11 05:04:00;;;;;;;3.60;2.63;;;19.50;99.90;;;;;;5110819;28;20443;-81
2021/08/11 05:06:29;;;;;;;2.67;2.47;;;19.50;99.90;;;;;;5110259;28;20460;-80
2021/08/11 05:08:57;;;;;;;2.90;2.70;;;19.60;99.90;;;;;;5111994;28;20486;-80
2021/08/11 05:11:27;;;;;;;3.00;2.70;;;19.50;1.00;;;;;;5111958;28;20976;-81
2021/08/11 05:13:55;;;;;;;2.97;2.60;;;19.70;99.90;;;;;;5113867;28;20447;-80
2021/08/11 05:16:23;;;;;;;3.87;3.30;;;19.80;99.90;;;;;;5113554;27;20456;-81
2021/08/11 05:18:51;;;;;;;3.57;3.27;;;19.90;99.90;;;;;;5114845;28;20460;-81
2021/08/11 05:21:19;;;;;;;3.93;2.53;;;19.90;99.90;;;;;;5114059;28;21056;-81
2021/08/11 05:23:47;;;;;;;5.70;2.80;;;20.00;99.90;;;;;;5115359;28;21001;-81
2021/08/11 05:26:17;;;;;;;6.40;3.37;;;20.10;99.90;;;;;;5114284;28;20509;-81
2021/08/11 05:28:46;;;;;;;3.60;2.90;;;20.10;99.90;;;;;;5115437;28;20493;-80
2021/08/11 05:31:16;;;;;;;3.10;2.80;;;20.20;99.90;;;;;;5114248;28;20556;-80
2021/08/11 05:33:44;;;;;;;2.80;2.37;;;20.20;99.90;;;;;;5114959;28;20960;-81
2021/08/11 05:36:12;;;;;;;4.60;2.80;;;20.20;99.90;;;;;;5113316;28;20456;-81
2021/08/11 05:38:40;;;;;;;3.13;2.70;;;20.20;99.90;;;;;;5115761;28;20596;-81
2021/08/11 05:41:08;;;;;;;7.43;3.60;;;20.30;99.90;;;;;;5112457;28;20447;-80
2021/08/11 05:43:36;;;;;;;7.20;4.10;;;20.30;99.90;;;;;;5115225;28;20544;-81
2021/08/11 05:46:07;;;;;;;4.43;3.50;;;20.30;99.90;;;;;;5113712;28;20528;-81
2021/08/11 05:48:36;;;;;;;3.73;3.13;;;20.30;99.90;;;;;;5114983;28;20842;-81
2021/08/11 05:51:04;;;;;;;4.07;3.20;;;20.30;99.90;;;;;;5134424;27;20496;-81
2021/08/11 05:53:32;;;;;;;5.23;3.27;;;20.30;99.90;;;;;;5135336;27;20491;-79
2021/08/11 05:56:00;;;;;;;5.60;3.50;;;20.40;99.90;;;;;;5133019;27;21028;-81
2021/08/11 05:58:28;;;;;;;3.90;3.00;;;20.40;99.90;;;;;;5128671;27;20468;-81
2021/08/11 06:00:56;;;;;;;3.90;3.10;;;20.40;99.90;;;;;;5118784;27;20443;-81
2021/08/11 06:03:26;;;;;;;4.23;3.07;;;20.40;99.90;;;;;;5114458;28;20433;-81
2021/08/11 06:05:55;;;;;;;3.20;3.00;;;20.50;99.90;;;;;;5113181;28;20484;-80
2021/08/11 06:08:23;;;;;;;3.90;3.17;;;20.50;99.90;;;;;;5115243;28;20564;-81
2021/08/11 06:10:51;;;;;;;4.87;3.80;;;20.60;99.90;;;;;;5114104;28;20449;-80
2021/08/11 06:13:19;;;;;;;3.40;3.10;;;20.50;99.90;;;;;;5114166;28;20498;-81
2021/08/11 06:15:47;;;;;;;5.70;3.53;;;20.60;99.90;;;;;;5113547;28;20474;-81
2021/08/11 06:18:15;;;;;;;4.03;3.63;;;20.70;99.90;;;;;;5114570;28;20452;-80
2021/08/11 06:20:47;;;;;;;6.23;3.70;;;20.70;99.90;;;;;;5112202;28;20445;-81
2021/08/11 06:23:15;;;;;;;9.17;4.13;;;20.80;99.90;;;;;;5115876;27;20473;-81
2021/08/11 06:25:43;;;;;;;4.33;3.37;;;20.80;99.90;;;;;;5113543;28;20481;-80
2021/08/11 06:28:11;;;;;;;4.00;3.70;;;20.90;99.90;;;;;;5115082;28;20433;-80
2021/08/11 06:30:39;;;;;;;5.90;3.40;;;21.10;99.90;;;;;;5113321;28;20433;-80
2021/08/11 06:33:08;;;;;;;4.63;3.13;;;21.20;99.90;;;;;;5113907;28;20468;-81
2021/08/11 06:35:36;;;;;;;4.57;3.23;;;21.30;38.40;;;;;;5113682;28;20463;-81
2021/08/11 06:38:05;;;;;;;5.03;3.60;;;21.40;45.10;;;;;;5114452;28;20494;-81
2021/08/11 06:40:36;;;;;;;3.63;3.00;;;21.40;1.00;;;;;;5113805;28;20545;-81
2021/08/11 06:43:05;;;;;;;4.60;3.70;;;21.60;1.00;;;;;;5114189;28;20459;-80
2021/08/11 06:45:33;;;;;;;10.73;3.70;;;21.80;1.00;;;;;;5111597;28;20446;-80
2021/08/11 06:48:01;;;;;;;6.40;3.70;;;21.90;1.00;;;;;;5114382;28;20504;-81
2021/08/11 06:50:29;;;;;;;4.03;3.13;;;22.10;1.00;;;;;;5111885;28;20440;-80
2021/08/11 06:52:57;;;;;;;5.40;3.73;;;22.30;1.00;;;;;;5113821;28;20471;-81
2021/08/11 06:55:27;;;;;;;6.47;3.93;;;22.40;1.00;;;;;;5113321;28;20449;-81
2021/08/11 06:57:55;;;;;;;6.90;3.07;;;22.50;1.00;;;;;;5114365;27;21003;-81
2021/08/11 07:00:23;;;;;;;4.30;2.97;;;22.60;1.00;;;;;;5111220;28;20518;-81
2021/08/11 07:02:51;;;;;;;3.73;3.17;;;22.70;1.00;;;;;;5114491;28;20884;-80
2021/08/11 07:05:20;;;;;;;5.20;3.10;;;22.80;1.00;;;;;;5113791;28;20460;-79
2021/08/11 07:07:48;;;;;;;5.60;3.43;;;22.80;1.00;;;;;;5113929;28;20440;-81
2021/08/11 07:10:18;;;;;;;2.90;2.60;;;22.70;1.00;;;;;;5112729;28;20437;-81
2021/08/11 07:12:48;;;;;;;5.33;3.07;;;22.70;1.00;;;;;;5112628;28;20526;-81
2021/08/11 07:15:16;;;;;;;5.60;4.63;;;22.80;1.00;;;;;;5127501;27;20471;-81
2021/08/11 07:17:52;;;;;;;5.23;3.60;;;22.80;1.00;;;;;;5133637;27;20435;-81
2021/08/11 07:20:21;;;;;;;4.27;3.10;;;22.90;1.00;;;;;;5133396;27;20478;-81
2021/08/11 07:22:49;;;;;;;4.00;3.07;;;23.00;1.00;;;;;;5133410;27;20524;-81
2021/08/11 07:25:18;;;;;;;6.20;2.40;;;23.00;1.00;;;;;;5133933;27;20441;-81
2021/08/11 07:27:48;;;;;;;3.00;2.80;;;23.10;1.00;;;;;;5132206;27;20508;-81
2021/08/11 07:30:16;;;;;;;3.33;2.80;;;23.20;1.00;;;;;;5133647;27;20439;-82
2021/08/11 07:32:44;;;;;;;5.17;3.10;;;23.30;1.00;;;;;;5131751;27;20525;-81
2021/08/11 07:35:14;;;;;;;3.00;2.73;;;23.30;1.00;;;;;;5134464;27;20443;-81
2021/08/11 07:37:49;;;;;;;2.87;2.60;;;23.30;1.00;;;;;;5132842;27;20473;-81
2021/08/11 07:40:18;;;;;;;3.27;2.97;;;23.30;1.00;;;;;;5134016;27;20471;-81
2021/08/11 07:42:48;;;;;;;3.63;3.37;;;23.30;1.00;;;;;;5132370;27;20494;-81
2021/08/11 07:45:18;;;;;;;3.20;2.90;;;23.30;1.00;;;;;;5133902;27;21008;-81
2021/08/11 07:47:51;;;;;;;14.30;3.40;;;23.30;1.00;;;;;;5132155;27;20460;-81
2021/08/11 07:50:22;;;;;;;4.40;3.20;;;23.30;1.00;;;;;;5133940;27;20431;-80
2021/08/11 07:52:50;;;;;;;5.00;3.00;;;23.30;1.00;;;;;;5133560;27;20444;-82
2021/08/11 07:55:19;;;;;;;3.00;2.70;;;23.40;1.00;;;;;;5132414;27;20466;-81
2021/08/11 07:57:49;;;;;;;4.97;3.20;;;23.40;1.00;;;;;;5119694;27;20451;-81
2021/08/11 08:00:19;;;;;;;5.07;3.07;;;23.40;1.00;;;;;;5113074;28;20874;-81
2021/08/11 08:02:47;;;;;;;4.27;3.07;;;23.50;1.00;;;;;;5112044;28;20460;-81
2021/08/11 08:05:16;;;;;;;6.83;2.87;;;23.50;1.00;;;;;;5113731;28;21030;-81
2021/08/11 08:07:45;;;;;;;3.07;2.77;;;23.60;1.00;;;;;;5112396;28;20433;-81
2021/08/11 08:10:13;;;;;;;3.30;3.03;;;23.60;1.00;;;;;;5112657;28;20437;-80
2021/08/11 08:12:43;;;;;;;2.73;2.50;;;23.60;1.00;;;;;;5111789;28;21261;-81
2021/08/11 08:15:14;;;;;;;2.70;2.30;;;23.60;1.00;;;;;;5112229;28;20437;-81
2021/08/11 08:17:43;;;;;;;3.20;2.73;;;23.70;1.00;;;;;;5112650;28;20814;-81
2021/08/11 08:20:16;;;;;;;3.00;2.70;;;23.70;1.00;;;;;;5110721;28;20465;-80
2021/08/11 08:22:44;;;;;;;3.10;2.80;;;23.80;1.00;;;;;;5111370;28;20576;-80
2021/08/11 08:25:13;;;;;;;3.47;3.17;;;23.80;1.00;;;;;;5113269;28;20464;-80
2021/08/11 08:27:42;;;;;;;3.67;3.10;;;23.80;1.00;;;;;;5111883;28;20437;-81
2021/08/11 08:30:12;;;;;;;2.43;2.23;;;23.80;1.00;;;;;;5113101;28;20446;-80
2021/08/11 08:32:40;;;;;;;2.67;2.47;;;23.90;1.00;;;;;;5112102;28;20445;-81
2021/08/11 08:35:08;;;;;;;4.30;2.87;;;24.00;1.00;;;;;;5111812;28;20960;-81
2021/08/11 08:37:38;;;;;;;3.80;3.50;;;23.90;1.00;;;;;;5112017;28;20433;-81
2021/08/11 08:40:08;;;;;;;3.10;2.80;;;23.90;1.00;;;;;;5111991;28;20468;-81
2021/08/11 08:42:37;;;;;;;4.47;2.70;;;24.00;1.00;;;;;;5113365;28;20464;-81
2021/08/11 08:45:07;;;;;;;4.53;3.20;;;23.90;1.00;;;;;;5115199;28;20647;-81
2021/08/11 08:47:38;;;;;;;2.33;2.13;;;24.00;1.00;;;;;;5117000;28;20490;-80
2021/08/11 08:50:08;;;;;;;3.47;3.00;;;24.10;1.00;;;;;;5116271;28;20524;-81
2021/08/11 08:52:37;;;;;;;3.27;2.87;;;24.20;1.00;;;;;;5116967;28;20564;-81
2021/08/11 08:55:07;;;;;;;3.30;3.03;;;24.20;1.00;;;;;;5115915;28;20966;-81
2021/08/11 08:57:35;;;;;;;2.77;2.40;;;24.20;1.00;;;;;;5117659;27;20976;-81
2021/08/11 09:00:05;;;;;;;3.70;2.80;;;24.30;1.00;;;;;;5114228;27;20497;-81
2021/08/11 09:02:38;;;;;;;3.57;2.80;;;24.30;1.00;;;;;;5128183;27;20456;-81
2021/08/11 09:05:08;;;;;;;2.87;2.63;;;24.40;99.90;;;;;;5114360;28;20483;-81
2021/08/11 09:07:43;;;;;;;3.97;2.87;;;24.40;99.90;;;;;;5117054;28;20456;-81
2021/08/11 09:10:19;;;;;;;2.40;2.20;;;24.50;99.90;;;;;;5115046;28;20440;-81
2021/08/11 09:13:07;;;;;;;2.93;2.63;;;24.60;99.90;;;;;;5114072;27;20479;-81
2021/08/11 09:15:36;;;;;;;3.20;2.30;;;24.60;99.90;;;;;;5115172;28;20452;-81
2021/08/11 09:18:15;;;;;;;2.83;2.30;;;24.50;99.90;;;;;;5117122;28;20441;-81
2021/08/11 09:20:44;;;;;;;3.57;2.60;;;24.40;99.90;;;;;;5114033;28;20840;-81
2021/08/11 09:23:14;;;;;;;2.70;2.50;;;24.50;99.90;;;;;;5116212;28;20461;-81
2021/08/11 09:26:07;;;;;;;2.00;1.90;;;24.50;99.90;;;;;;5115757;28;20865;-81
2021/08/11 09:28:37;;;;;;;4.20;2.90;;;24.40;99.90;;;;;;5100820;28;20429;-81
2021/08/11 09:31:22;;;;;;;2.43;2.23;;;24.40;99.90;;;;;;5115898;27;20452;-81
2021/08/11 09:33:53;;;;;;;4.20;2.53;;;24.40;99.90;;;;;;5114205;28;20448;-81
2021/08/11 09:36:21;;;;;;;6.23;2.60;;;24.50;99.90;;;;;;5116523;28;20445;-81
2021/08/11 09:39:01;;;;;;;2.27;1.90;;;24.50;99.90;;;;;;5114931;28;20433;-81
2021/08/11 09:41:29;;;;;;;1.97;1.80;;;24.60;99.90;;;;;;5115960;28;20488;-81
2021/08/11 09:44:07;;;;;;;2.77;1.90;;;24.70;99.90;;;;;;5115243;28;20437;-82
2021/08/11 09:46:36;;;;;;;3.13;2.00;;;24.70;99.90;;;;;;5116579;27;21015;-81
2021/08/11 09:49:15;;;;;;;2.50;2.30;;;24.70;99.90;;;;;;5134966;27;21021;-81
2021/08/11 09:51:58;;;;;;;2.10;1.93;;;24.70;99.90;;;;;;5136607;27;20485;-80
2021/08/11 09:54:28;;;;;;;2.27;2.10;;;24.80;99.90;;;;;;5133222;27;20546;-81
2021/08/11 09:56:56;;;;;;;2.97;2.00;;;24.80;99.90;;;;;;5123569;27;20448;-81
2021/08/11 09:59:25;;;;;;;3.23;2.93;;;24.80;99.90;;;;;;5114366;28;20436;-81
2021/08/11 10:02:13;;;;;;;2.40;2.10;;;24.90;99.90;;;;;;5115201;28;20492;-81
2021/08/11 10:04:43;;;;;;;3.00;2.80;;;24.90;99.90;;;;;;5115151;27;20452;-81
2021/08/11 10:07:11;;;;;;;4.63;2.93;;;24.90;99.90;;;;;;5115731;28;20445;-82
2021/08/11 10:09:42;;;;;;;2.93;2.23;;;24.90;99.90;;;;;;5114914;28;20480;-81
2021/08/11 10:12:28;;;;;;;2.53;2.20;;;25.10;99.90;;;;;;5114819;28;20754;-81
2021/08/11 10:14:57;;;;;;;2.10;1.97;;;25.00;99.90;;;;;;5116166;28;20779;-81
2021/08/11 10:17:29;;;;;;;2.70;2.50;;;25.10;99.90;;;;;;5115319;28;20433;-80
2021/08/11 10:20:00;;;;;;;3.13;2.80;;;25.20;99.90;;;;;;5115548;28;20498;-81
2021/08/11 10:22:29;;;;;;;2.10;1.90;;;25.20;99.90;;;;;;5116058;27;20535;-80
2021/08/11 10:24:58;;;;;;;3.20;2.70;;;25.20;99.90;;;;;;5116346;28;20441;-81
2021/08/11 10:27:27;;;;;;;6.00;2.87;;;25.30;99.90;;;;;;5114845;28;20462;-80
2021/08/11 10:29:55;;;;;;;3.80;3.00;;;25.20;99.90;;;;;;5113792;28;20445;-81
2021/08/11 10:32:24;;;;;;;3.13;2.80;;;25.20;99.90;;;;;;5114980;28;20449;-81
2021/08/11 10:34:54;;;;;;;2.97;2.77;;;25.20;99.90;;;;;;5114481;28;20448;-81
2021/08/11 10:37:24;;;;;;;3.97;3.07;;;25.30;99.90;;;;;;5114977;28;20441;-81
2021/08/11 10:39:53;;;;;;;3.13;2.80;;;25.30;99.90;;;;;;5115255;28;20826;-81
2021/08/11 10:42:21;;;;;;;3.33;2.67;;;25.20;99.90;;;;;;5114726;28;20852;-81
2021/08/11 10:44:58;;;;;;;3.03;2.83;;;25.20;99.90;;;;;;5115645;28;20445;-82
2021/08/11 10:47:30;;;;;;;2.87;2.67;;;25.20;99.90;;;;;;5112758;28;20444;-81
2021/08/11 10:50:00;;;;;;;2.80;2.60;;;25.30;99.90;;;;;;5115661;28;20494;-81
2021/08/11 10:52:31;;;;;;;2.97;2.67;;;25.30;99.90;;;;;;5113975;28;21055;-81
2021/08/11 10:55:01;;;;;;;4.07;2.80;;;25.40;99.90;;;;;;5118448;27;20459;-81
2021/08/11 10:57:45;;;;;;;3.63;2.57;;;25.40;99.90;;;;;;5115543;27;20861;-81
2021/08/11 11:00:42;;;;;;;3.43;3.13;;;25.40;99.90;;;;;;5115070;28;20497;-81
2021/08/11 11:03:43;;;;;;;3.20;2.50;;;25.40;99.90;;;;;;5113537;28;20508;-82
2021/08/11 11:06:12;;;;;;;4.00;2.53;;;25.50;99.90;;;;;;5113109;28;20456;-81
2021/08/11 11:08:41;;;;;;;2.50;2.30;;;25.40;99.90;;;;;;5114399;28;20490;-82
2021/08/11 11:11:41;;;;;;;3.20;2.50;;;25.40;99.90;;;;;;5111108;28;20452;-82
2021/08/11 11:14:51;;;;;;;2.90;2.70;;;25.50;99.90;;;;;;5113253;28;20445;-81
2021/08/11 11:17:21;;;;;;;2.90;2.60;;;25.50;99.90;;;;;;5114249;28;20437;-80
2021/08/11 11:20:29;;;;;;;3.47;3.17;;;25.60;99.90;;;;;;5114096;28;20773;-81
2021/08/11 11:23:07;;;;;;;2.47;2.27;;;25.70;99.90;;;;;;5114657;28;20499;-81
2021/08/11 11:25:56;;;;;;;2.63;2.43;;;25.70;99.90;;;;;;5114126;28;20432;-81
2021/08/11 11:29:07;;;;;;;3.67;2.60;;;25.80;99.90;;;;;;5115355;28;20463;-81
2021/08/11 11:31:40;;;;;;;3.37;2.60;;;25.80;99.90;;;;;;5102797;28;21026;-81
2021/08/11 11:34:26;;;;;;;3.17;2.93;;;25.80;99.90;;;;;;5114958;28;20437;-81
2021/08/11 11:37:26;;;;;;;3.23;2.43;;;25.90;99.90;;;;;;5112643;28;20449;-81
2021/08/11 11:40:12;;;;;;;4.67;2.50;;;26.00;99.90;;;;;;5114555;28;20539;-81
2021/08/11 11:42:46;;;;;;;3.13;2.37;;;26.00;99.90;;;;;;5113879;28;20492;-81
2021/08/11 11:45:17;;;;;;;3.07;2.13;;;26.10;99.90;;;;;;5113077;28;20457;-81
2021/08/11 11:48:12;;;;;;;2.73;1.90;;;26.10;99.90;;;;;;5113659;27;20445;-81
2021/08/11 11:50:47;;;;;;;2.40;2.10;;;26.00;99.90;;;;;;5112636;28;20429;-81
2021/08/11 11:53:32;;;;;;;2.40;2.20;;;26.10;99.90;;;;;;5133385;27;20453;-81
2021/08/11 11:56:11;;;;;;;2.77;2.00;;;26.10;99.90;;;;;;5119008;27;20443;-80
2021/08/11 11:58:45;;;;;;;3.20;2.90;;;26.20;99.90;;;;;;5114787;28;20769;-82
2021/08/11 12:01:13;;;;;;;3.50;2.87;;;26.30;99.90;;;;;;5116347;27;20977;-80
2021/08/11 12:03:45;;;;;;;2.57;2.37;;;26.40;99.90;;;;;;5133148;27;20471;-81
2021/08/11 12:06:13;;;;;;;2.33;2.20;;;26.40;99.90;;;;;;5134537;27;20464;-81
2021/08/11 12:08:55;;;;;;;3.10;1.90;;;26.40;99.90;;;;;;5132924;27;20500;-81
2021/08/11 12:11:27;;;;;;;2.43;2.23;;;26.50;99.90;;;;;;5132023;27;20463;-80
2021/08/11 12:13:57;;;;;;;3.30;2.30;;;26.50;99.90;;;;;;5133741;27;20958;-82
2021/08/11 12:16:35;;;;;;;4.70;2.47;;;26.50;99.90;;;;;;5134156;28;20444;-81
2021/08/11 12:19:14;;;;;;;2.67;2.47;;;26.50;99.90;;;;;;5133394;27;20450;-82
2021/08/11 12:21:42;;;;;;;3.57;2.23;;;26.50;99.90;;;;;;5114879;28;20460;-81
2021/08/11 12:24:11;;;;;;;2.40;2.20;;;26.60;99.90;;;;;;5112561;28;20448;-81
2021/08/11 12:26:39;;;;;;;2.73;2.53;;;26.60;99.90;;;;;;5113200;28;20453;-82
2021/08/11 12:29:20;;;;;;;2.50;2.17;;;26.60;99.90;;;;;;5111910;28;20810;-80
2021/08/11 12:31:50;;;;;;;2.43;2.13;;;26.70;99.90;;;;;;5113247;28;20464;-82
2021/08/11 12:34:19;;;;;;;2.20;2.10;;;26.70;99.90;;;;;;5110548;28;20452;-82
2021/08/11 12:36:47;;;;;;;2.53;2.33;;;26.80;99.90;;;;;;5115474;28;20448;-81
2021/08/11 12:39:17;;;;;;;2.80;2.43;;;26.80;99.90;;;;;;5132402;28;20935;-81
2021/08/11 12:41:47;;;;;;;2.83;2.63;;;26.80;99.90;;;;;;5134580;28;20546;-81
2021/08/11 12:44:19;;;;;;;2.53;2.33;;;26.90;99.90;;;;;;5133609;28;20432;-81
2021/08/11 12:46:53;;;;;;;2.40;2.20;;;27.00;99.90;;;;;;5133135;28;20436;-81
2021/08/11 12:49:27;;;;;;;2.47;2.37;;;26.90;99.90;;;;;;5131450;28;20455;-81
2021/08/11 12:52:18;;;;;;;1.87;1.77;;;26.90;99.90;;;;;;5133949;28;20460;-81
2021/08/11 12:54:55;;;;;;;4.00;3.43;;;27.00;99.90;;;;;;5134200;27;20448;-81
2021/08/11 12:57:25;;;;;;;3.10;2.30;;;27.00;99.90;;;;;;5135497;28;20455;-82
2021/08/11 12:59:55;;;;;;;3.90;2.60;;;26.90;99.90;;;;;;5135726;27;20428;-81
2021/08/11 13:02:26;;;;;;;3.10;2.80;;;26.90;99.90;;;;;;5133880;28;20556;-81
2021/08/11 13:05:06;;;;;;;3.27;3.00;;;27.00;99.90;;;;;;5133292;28;20455;-81
2021/08/11 13:07:35;;;;;;;2.83;2.30;;;27.00;99.90;;;;;;5131586;28;20448;-81
2021/08/11 13:10:14;;;;;;;2.37;2.20;;;27.00;99.90;;;;;;5132692;28;21003;-82
2021/08/11 13:12:42;;;;;;;4.50;2.27;;;27.00;99.90;;;;;;5110442;28;20470;-81
2021/08/11 13:15:25;;;;;;;2.63;2.43;;;27.10;99.90;;;;;;5112629;28;20437;-81